Time;durP1;ratioP1;P1;durP2;ratioP2;P2;SDS_P1;SDS_P2;PMS_P1;PMS_P2;Temp;Humidity;BMP_temperature;BMP_pressure;BME280_temperature;BME280_humidity;BME280_pressure;Samples;Min_cycle;Max_cycle;Signal;HPM_P1;HPM_P2
2023/06/09 00:00:55;;;;;;;17.20;15.68;;;24.80;72.30;;;;;;4615917;55;21499;-39
2023/06/09 00:05:59;;;;;;;16.35;14.95;;;24.80;72.20;;;;;;4628913;55;21516;-35
2023/06/09 00:11:00;;;;;;;17.12;15.55;;;24.80;72.30;;;;;;4770504;56;21550;-38
2023/06/09 00:16:00;;;;;;;17.45;15.85;;;24.80;72.20;;;;;;4619984;55;21112;-36
2023/06/09 00:21:03;;;;;;;16.92;15.43;;;24.80;72.20;;;;;;4733990;55;21088;-39
2023/06/09 00:26:04;;;;;;;16.17;14.68;;;24.80;72.20;;;;;;4615001;59;21491;-36
2023/06/09 00:31:05;;;;;;;16.92;15.38;;;24.80;72.20;;;;;;4637270;55;21503;-36
2023/06/09 00:36:07;;;;;;;16.77;15.27;;;24.80;72.20;;;;;;4638732;55;21548;-36
2023/06/09 00:41:08;;;;;;;16.40;14.80;;;24.80;72.10;;;;;;4675569;56;21658;-37
2023/06/09 00:46:09;;;;;;;17.40;15.80;;;24.80;72.10;;;;;;4697045;55;21125;-37
2023/06/09 00:51:10;;;;;;;17.55;15.85;;;24.80;72.10;;;;;;4617285;55;21503;-36
2023/06/09 00:56:12;;;;;;;16.15;14.60;;;24.80;72.00;;;;;;4667615;55;21033;-35
2023/06/09 01:01:13;;;;;;;15.52;14.13;;;24.80;72.00;;;;;;4622816;56;21089;-36
2023/06/09 01:06:30;;;;;;;17.45;15.85;;;24.80;72.10;;;;;;4767027;55;21495;-36
2023/06/09 01:12:02;;;;;;;15.73;14.32;;;24.80;72.10;;;;;;4823812;56;21487;-36
2023/06/09 01:17:13;;;;;;;15.73;14.30;;;24.80;72.00;;;;;;4694774;56;21039;-39
2023/06/09 01:24:09;;;;;;;16.23;14.73;;;24.80;72.00;;;;;;4834159;56;21350;-37
2023/06/09 01:29:13;;;;;;;15.70;14.30;;;24.80;72.00;;;;;;4657510;56;21503;-38
2023/06/09 01:34:15;;;;;;;15.63;14.18;;;24.70;71.90;;;;;;4696308;56;21898;-38
2023/06/09 01:39:16;;;;;;;15.57;14.23;;;24.80;72.00;;;;;;4791296;56;21062;-39
2023/06/09 01:44:17;;;;;;;17.08;15.43;;;24.80;71.90;;;;;;4687820;56;21053;-35
2023/06/09 01:53:04;;;;;;;15.55;14.13;;;24.80;71.90;;;;;;4615902;55;21527;-37
2023/06/09 01:58:14;;;;;;;15.70;14.20;;;24.70;71.90;;;;;;4756930;56;21455;-34
2023/06/09 02:03:20;;;;;;;15.50;14.10;;;24.80;71.90;;;;;;4615499;58;21148;-35
2023/06/09 02:08:22;;;;;;;15.30;14.00;;;24.80;71.90;;;;;;4615920;60;21005;-34
2023/06/09 02:13:23;;;;;;;15.10;13.70;;;24.70;71.80;;;;;;4615606;60;21610;-36
2023/06/09 02:18:24;;;;;;;14.45;13.25;;;24.70;71.80;;;;;;4770754;55;21105;-37
2023/06/09 02:23:25;;;;;;;14.60;13.30;;;24.70;71.70;;;;;;4725390;55;21528;-37
2023/06/09 02:28:26;;;;;;;14.85;13.52;;;24.70;71.70;;;;;;4758888;55;21555;-36
2023/06/09 02:33:28;;;;;;;15.07;13.77;;;24.70;71.70;;;;;;4710658;55;21125;-35
2023/06/09 02:38:31;;;;;;;15.50;14.18;;;24.80;71.70;;;;;;4715589;55;21040;-36
2023/06/09 02:43:32;;;;;;;14.18;12.88;;;24.70;71.70;;;;;;4680176;55;21587;-37
2023/06/09 02:48:32;;;;;;;13.85;12.65;;;24.70;71.70;;;;;;4641001;55;21120;-34
2023/06/09 02:53:33;;;;;;;14.90;13.52;;;24.70;72.30;;;;;;4659400;55;21081;-34
2023/06/09 02:58:34;;;;;;;14.95;13.55;;;24.70;71.60;;;;;;4644256;55;21025;-35
2023/06/09 03:03:38;;;;;;;13.88;12.63;;;24.70;71.60;;;;;;4649461;55;21522;-35
2023/06/09 03:08:40;;;;;;;14.75;13.35;;;24.70;71.60;;;;;;4752629;55;22009;-38
2023/06/09 03:13:41;;;;;;;13.98;12.77;;;24.70;71.60;;;;;;4747029;56;21153;-38
2023/06/09 03:18:42;;;;;;;13.73;12.52;;;24.70;71.60;;;;;;4739471;55;21619;-37
2023/06/09 03:23:42;;;;;;;14.57;13.27;;;24.70;71.50;;;;;;4803464;55;21108;-35
2023/06/09 03:28:43;;;;;;;13.77;12.52;;;24.70;71.50;;;;;;4679687;55;21064;-35
2023/06/09 03:33:44;;;;;;;14.32;13.05;;;24.70;71.40;;;;;;4669092;55;21370;-37
2023/06/09 03:38:45;;;;;;;13.40;12.20;;;24.70;71.30;;;;;;4655712;55;21398;-36
2023/06/09 03:43:46;;;;;;;14.73;13.30;;;24.70;71.30;;;;;;4733530;55;21417;-36
2023/06/09 03:48:47;;;;;;;13.95;12.65;;;24.70;71.00;;;;;;4652608;55;21013;-35
2023/06/09 03:53:48;;;;;;;13.45;12.25;;;24.70;71.00;;;;;;4681465;55;21644;-36
2023/06/09 03:58:48;;;;;;;14.43;13.13;;;24.60;70.90;;;;;;4727053;55;21009;-34
2023/06/09 04:03:49;;;;;;;14.02;12.82;;;24.70;71.00;;;;;;4763159;55;21057;-38
2023/06/09 04:08:51;;;;;;;13.82;12.63;;;24.70;70.90;;;;;;4780187;56;21372;-39
2023/06/09 04:13:52;;;;;;;12.90;11.77;;;24.70;70.80;;;;;;4820860;55;21554;-33
2023/06/09 04:18:53;;;;;;;13.52;12.32;;;24.60;70.80;;;;;;4633187;55;21014;-37
2023/06/09 04:23:55;;;;;;;13.88;12.57;;;24.60;70.80;;;;;;4636046;55;21104;-36
2023/06/09 04:28:56;;;;;;;13.15;11.95;;;24.60;70.60;;;;;;4656228;56;21065;-37
2023/06/09 04:33:57;;;;;;;13.55;12.25;;;24.60;70.60;;;;;;4680501;55;21610;-34
2023/06/09 04:38:58;;;;;;;12.20;11.10;;;24.60;70.60;;;;;;4780455;55;21407;-35
2023/06/09 04:44:06;;;;;;;12.32;11.23;;;24.60;70.50;;;;;;4634093;55;21919;-37
2023/06/09 04:49:10;;;;;;;13.35;12.15;;;24.60;70.50;;;;;;4718600;56;21109;-38
2023/06/09 04:54:11;;;;;;;12.75;11.45;;;24.60;70.40;;;;;;4713607;56;21073;-34
2023/06/09 04:59:12;;;;;;;13.32;12.02;;;24.60;70.40;;;;;;4616007;55;21488;-36
2023/06/09 05:04:14;;;;;;;12.45;11.25;;;24.60;70.40;;;;;;4615418;60;21555;-38
2023/06/09 05:09:15;;;;;;;12.73;11.52;;;24.60;70.40;;;;;;4642180;56;21049;-35
2023/06/09 05:14:15;;;;;;;13.25;11.95;;;24.60;70.30;;;;;;4733075;56;21499;-38
2023/06/09 05:19:16;;;;;;;13.88;12.48;;;24.60;70.20;;;;;;4802564;55;21005;-37
2023/06/09 05:24:17;;;;;;;13.27;11.98;;;24.60;70.30;;;;;;4845949;55;21049;-35
2023/06/09 05:29:18;;;;;;;15.60;12.82;;;24.60;70.10;;;;;;4642769;55;21547;-39
2023/06/09 05:34:19;;;;;;;14.15;12.65;;;24.60;70.10;;;;;;4615326;59;21139;-38
2023/06/09 05:39:20;;;;;;;14.75;12.20;;;24.60;70.10;;;;;;4688376;55;21575;-38
2023/06/09 05:44:21;;;;;;;15.35;12.52;;;24.60;70.00;;;;;;4663664;55;21534;-40
2023/06/09 05:49:21;;;;;;;16.65;12.93;;;24.60;70.00;;;;;;4677726;55;21036;-38
2023/06/09 05:54:22;;;;;;;18.87;13.30;;;24.60;70.00;;;;;;4615799;60;21476;-36
2023/06/09 05:59:23;;;;;;;17.08;12.85;;;24.60;69.90;;;;;;4671406;55;21154;-38
2023/06/09 06:04:24;;;;;;;14.98;12.85;;;24.60;69.90;;;;;;4613617;59;21596;-39
2023/06/09 06:09:25;;;;;;;17.23;13.48;;;24.60;69.80;;;;;;4713260;55;21495;-37
2023/06/09 06:14:26;;;;;;;17.35;12.90;;;24.60;69.90;;;;;;4643887;55;21366;-38
2023/06/09 06:19:27;;;;;;;16.60;12.98;;;24.60;69.80;;;;;;4675094;55;21675;-35
2023/06/09 06:24:28;;;;;;;19.62;14.27;;;24.60;69.80;;;;;;4689340;55;21551;-38
2023/06/09 06:29:30;;;;;;;19.85;13.70;;;24.60;69.70;;;;;;4652424;55;21068;-38
2023/06/09 06:34:31;;;;;;;16.80;14.13;;;24.60;69.70;;;;;;4618289;55;21135;-39
2023/06/09 06:39:32;;;;;;;20.37;14.80;;;24.60;69.80;;;;;;4630914;55;21049;-39
2023/06/09 06:44:32;;;;;;;18.80;14.52;;;24.60;69.60;;;;;;4614422;59;21608;-40
2023/06/09 06:49:33;;;;;;;17.30;14.27;;;24.60;69.60;;;;;;4614833;60;21034;-39
2023/06/09 06:54:34;;;;;;;20.42;14.45;;;24.60;69.60;;;;;;4614347;60;21021;-36
2023/06/09 06:59:35;;;;;;;19.95;14.93;;;24.60;69.50;;;;;;4638091;55;21120;-38
2023/06/09 07:04:36;;;;;;;19.83;15.18;;;24.60;69.50;;;;;;4629884;55;21037;-37
2023/06/09 07:09:37;;;;;;;19.35;14.13;;;24.60;69.60;;;;;;4613420;59;21109;-37
2023/06/09 07:14:38;;;;;;;20.70;16.30;;;24.60;69.50;;;;;;4628679;55;21495;-38
2023/06/09 07:19:39;;;;;;;18.27;15.43;;;24.60;69.50;;;;;;4621583;55;21017;-37
2023/06/09 07:24:40;;;;;;;21.15;15.68;;;24.60;69.50;;;;;;4720268;55;21062;-33
2023/06/09 07:29:42;;;;;;;18.45;15.13;;;24.70;69.70;;;;;;4613208;55;21085;-35
2023/06/09 07:34:45;;;;;;;21.08;16.20;;;24.70;69.60;;;;;;4613263;59;21558;-36
2023/06/09 07:39:46;;;;;;;21.55;16.30;;;24.80;69.70;;;;;;4613826;59;21579;-34
2023/06/09 07:44:46;;;;;;;21.73;16.95;;;24.80;69.70;;;;;;4639350;55;21057;-37
2023/06/09 07:49:47;;;;;;;21.75;16.80;;;24.80;69.70;;;;;;4613269;60;21061;-36
2023/06/09 07:54:48;;;;;;;21.70;17.00;;;24.90;69.70;;;;;;4619342;55;21033;-35
2023/06/09 07:59:51;;;;;;;24.00;18.27;;;24.90;70.20;;;;;;4612487;59;21077;-37
2023/06/09 08:04:52;;;;;;;26.25;18.80;;;24.90;69.60;;;;;;4614438;60;21210;-37
2023/06/09 08:09:53;;;;;;;22.33;18.45;;;24.90;69.70;;;;;;4647701;55;21077;-38
2023/06/09 08:14:54;;;;;;;23.62;18.05;;;24.80;69.90;;;;;;4667031;55;21077;-40
2023/06/09 08:19:55;;;;;;;24.42;18.73;;;24.80;70.10;;;;;;4613163;56;21038;-38
2023/06/09 08:24:56;;;;;;;21.23;17.02;;;24.70;70.00;;;;;;4631212;55;21056;-37
2023/06/09 08:29:57;;;;;;;25.00;18.87;;;24.70;70.00;;;;;;4622927;55;21607;-40
2023/06/09 08:35:06;;;;;;;26.77;19.37;;;24.70;70.00;;;;;;4614984;59;21026;-39
2023/06/09 08:40:08;;;;;;;22.20;17.85;;;24.70;70.00;;;;;;4620282;56;21558;-38
2023/06/09 08:45:10;;;;;;;22.33;17.50;;;24.70;70.00;;;;;;4650547;56;21053;-38
2023/06/09 08:50:13;;;;;;;24.15;19.10;;;24.70;70.00;;;;;;4690529;56;21579;-38
2023/06/09 08:55:15;;;;;;;22.55;18.20;;;24.70;70.00;;;;;;4629991;56;21024;-39
2023/06/09 09:00:16;;;;;;;23.55;18.60;;;24.70;70.00;;;;;;4760906;56;21500;-38
2023/06/09 09:05:17;;;;;;;24.80;18.55;;;24.70;70.00;;;;;;4669486;56;21041;-39
2023/06/09 09:10:18;;;;;;;23.45;18.48;;;24.70;70.00;;;;;;4705937;55;21483;-39
2023/06/09 09:15:19;;;;;;;21.67;18.77;;;24.70;70.00;;;;;;4658569;56;21033;-39
2023/06/09 09:20:34;;;;;;;20.50;18.30;;;24.70;70.00;;;;;;4716012;55;21575;-38
2023/06/09 09:25:35;;;;;;;24.30;18.98;;;24.70;70.00;;;;;;4732481;56;21029;-37
2023/06/09 09:30:50;;;;;;;22.92;18.23;;;24.70;70.00;;;;;;4628368;55;21495;-38
2023/06/09 09:35:55;;;;;;;22.48;17.30;;;24.70;70.10;;;;;;4732999;56;21576;-37
2023/06/09 09:41:00;;;;;;;24.20;19.60;;;24.70;70.10;;;;;;4670323;56;21109;-37
2023/06/09 09:46:08;;;;;;;22.15;18.83;;;24.70;70.10;;;;;;4614864;60;21539;-39
2023/06/09 09:51:09;;;;;;;21.33;17.70;;;24.70;70.80;;;;;;4655726;56;21566;-39
2023/06/09 09:56:10;;;;;;;22.85;18.73;;;24.70;70.10;;;;;;4629086;56;21052;-37
2023/06/09 10:01:11;;;;;;;21.50;17.42;;;24.70;70.20;;;;;;4621023;56;21018;-36
2023/06/09 10:06:16;;;;;;;24.02;18.83;;;24.70;70.10;;;;;;4626720;55;21534;-36
2023/06/09 10:11:17;;;;;;;25.12;19.30;;;24.70;70.10;;;;;;4622170;56;21005;-39
2023/06/09 10:16:20;;;;;;;21.60;18.20;;;24.80;70.80;;;;;;4615420;60;21156;-37
2023/06/09 10:21:23;;;;;;;20.05;17.67;;;24.70;70.10;;;;;;4617025;56;21093;-38
2023/06/09 10:26:24;;;;;;;21.15;17.65;;;24.70;70.10;;;;;;4766531;56;21519;-40
2023/06/09 10:31:25;;;;;;;21.23;18.20;;;24.70;70.10;;;;;;4692368;56;21017;-40
2023/06/09 10:36:36;;;;;;;19.25;17.15;;;24.70;70.20;;;;;;4622208;56;21089;-38
2023/06/09 10:41:43;;;;;;;21.27;18.37;;;24.70;70.20;;;;;;4621221;56;21479;-37
2023/06/09 10:46:45;;;;;;;;;;;24.70;70.20;;;;;;4657964;56;21053;-39
2023/06/09 10:51:47;;;;;;;20.23;18.00;;;24.70;70.20;;;;;;4637145;55;20144;-37
2023/06/09 10:56:56;;;;;;;23.95;17.75;;;24.70;70.20;;;;;;4636131;55;21028;-36
2023/06/09 11:02:40;;;;;;;20.52;17.87;;;24.70;70.10;;;;;;4672283;56;20997;-40
2023/06/09 11:08:03;;;;;;;19.60;17.15;;;24.70;70.20;;;;;;4614772;60;21648;-38
2023/06/09 11:13:38;;;;;;;18.65;16.20;;;24.80;70.30;;;;;;4721835;56;21080;-39
2023/06/09 11:18:39;;;;;;;18.90;16.48;;;24.70;70.20;;;;;;4625896;56;21556;-38
2023/06/09 11:23:57;;;;;;;19.55;16.90;;;24.80;70.30;;;;;;4615339;60;21116;-37
2023/06/09 11:28:59;;;;;;;20.85;18.42;;;24.80;70.30;;;;;;4614831;60;21073;-38
2023/06/09 11:34:00;;;;;;;19.55;16.95;;;24.80;70.30;;;;;;4703073;56;21483;-39
2023/06/09 11:39:04;;;;;;;20.05;17.60;;;24.70;70.30;;;;;;4670539;55;21503;-39
2023/06/09 11:44:05;;;;;;;19.55;16.87;;;24.80;70.30;;;;;;4614866;60;21659;-37
2023/06/09 11:49:08;;;;;;;18.15;16.15;;;24.70;70.30;;;;;;4615551;59;21077;-40
2023/06/09 11:54:09;;;;;;;18.85;16.85;;;24.80;70.40;;;;;;4668368;56;21069;-37
2023/06/09 11:59:10;;;;;;;22.05;17.00;;;24.80;70.40;;;;;;4688117;55;21487;-38
2023/06/09 12:04:11;;;;;;;19.08;16.42;;;24.80;70.30;;;;;;4619463;55;21037;-35
2023/06/09 12:09:22;;;;;;;19.65;17.62;;;24.80;70.40;;;;;;4685254;55;21583;-36
2023/06/09 12:14:23;;;;;;;18.02;16.12;;;24.80;70.30;;;;;;4694323;56;21511;-38
2023/06/09 12:19:24;;;;;;;18.55;16.55;;;24.80;70.30;;;;;;4652586;56;21593;-39
2023/06/09 12:24:27;;;;;;;20.15;18.02;;;24.80;70.30;;;;;;4702928;56;21109;-35
2023/06/09 12:29:28;;;;;;;18.70;16.75;;;24.80;70.40;;;;;;4615274;56;21516;-38
2023/06/09 12:34:29;;;;;;;18.58;16.50;;;24.80;70.30;;;;;;4673824;55;21058;-40
2023/06/09 12:39:34;;;;;;;19.23;17.23;;;24.80;70.40;;;;;;4622369;55;21464;-40
2023/06/09 12:44:35;;;;;;;19.05;17.05;;;24.80;70.30;;;;;;4776535;55;21120;-40
2023/06/09 12:49:35;;;;;;;19.85;17.75;;;24.80;70.30;;;;;;4615518;59;21013;-36
2023/06/09 12:54:37;;;;;;;19.37;17.10;;;24.80;70.30;;;;;;4636129;55;21550;-35
2023/06/09 12:59:38;;;;;;;19.33;17.35;;;24.80;70.30;;;;;;4621023;55;21479;-36
2023/06/09 13:04:39;;;;;;;18.87;16.87;;;24.80;70.30;;;;;;4615635;59;21045;-38
2023/06/09 13:09:40;;;;;;;20.62;17.75;;;24.80;70.30;;;;;;4667627;55;21490;-38
2023/06/09 13:14:40;;;;;;;17.80;15.63;;;24.80;70.40;;;;;;4661860;55;21017;-38
2023/06/09 13:19:42;;;;;;;19.20;17.17;;;24.80;70.40;;;;;;4635671;55;21543;-36
2023/06/09 13:24:43;;;;;;;21.02;17.83;;;24.80;70.40;;;;;;4644255;56;21025;-36
2023/06/09 13:29:44;;;;;;;19.15;17.15;;;24.80;70.40;;;;;;4650417;55;21504;-36
2023/06/09 13:34:46;;;;;;;18.67;16.77;;;24.80;70.40;;;;;;4759746;55;21515;-37
2023/06/09 13:39:47;;;;;;;17.40;15.60;;;24.80;70.40;;;;;;4675342;55;21645;-35
2023/06/09 13:44:48;;;;;;;18.87;16.35;;;24.80;70.40;;;;;;4615022;59;21116;-36
2023/06/09 13:49:49;;;;;;;19.17;17.05;;;24.80;70.40;;;;;;4631772;56;21013;-37
2023/06/09 13:54:49;;;;;;;19.48;17.37;;;24.80;70.40;;;;;;4615797;59;21539;-39
2023/06/09 13:59:50;;;;;;;18.45;16.55;;;24.80;70.40;;;;;;4706001;55;21013;-37
2023/06/09 14:04:53;;;;;;;20.05;17.92;;;24.80;70.40;;;;;;4648974;55;21088;-35
2023/06/09 14:09:55;;;;;;;18.92;16.75;;;24.90;70.40;;;;;;4615801;60;21595;-35
2023/06/09 14:14:56;;;;;;;19.12;17.12;;;24.80;70.40;;;;;;4648400;55;21639;-36
2023/06/09 14:19:57;;;;;;;19.45;17.52;;;24.80;70.40;;;;;;4621373;55;21073;-38
2023/06/09 14:24:57;;;;;;;20.23;17.37;;;24.80;70.40;;;;;;4626379;55;21028;-36
2023/06/09 14:29:58;;;;;;;18.98;16.98;;;24.80;70.40;;;;;;4615445;55;21078;-32
2023/06/09 14:34:59;;;;;;;18.67;16.67;;;24.90;70.50;;;;;;4695793;55;21499;-36
2023/06/09 14:40:00;;;;;;;18.73;16.83;;;24.80;70.40;;;;;;4642547;55;21029;-36
2023/06/09 14:45:01;;;;;;;18.12;16.23;;;24.80;70.40;;;;;;4660781;55;21121;-37
2023/06/09 14:50:02;;;;;;;18.67;16.77;;;24.80;70.40;;;;;;4615711;59;21555;-37
2023/06/09 14:55:04;;;;;;;18.55;16.23;;;24.80;70.40;;;;;;4713862;56;21051;-37
2023/06/09 15:00:09;;;;;;;19.58;17.50;;;24.80;70.40;;;;;;4672568;56;21507;-37
2023/06/09 15:05:09;;;;;;;19.42;17.42;;;24.80;70.50;;;;;;4628881;56;21021;-35
2023/06/09 15:10:10;;;;;;;17.95;16.10;;;24.80;70.50;;;;;;4667443;55;21053;-37
2023/06/09 15:15:11;;;;;;;19.27;16.77;;;24.80;71.10;;;;;;4644517;55;21578;-36
2023/06/09 15:20:16;;;;;;;18.65;16.75;;;24.80;70.50;;;;;;4789091;55;21100;-36
2023/06/09 15:25:18;;;;;;;18.67;16.75;;;24.80;70.50;;;;;;4622344;55;21543;-38
2023/06/09 15:30:19;;;;;;;19.05;17.12;;;24.80;70.50;;;;;;4615333;60;21579;-38
2023/06/09 15:35:19;;;;;;;18.40;16.55;;;24.80;70.50;;;;;;4624999;56;21069;-37
2023/06/09 15:40:20;;;;;;;18.87;16.95;;;24.80;70.60;;;;;;4619441;55;21025;-37
2023/06/09 15:45:21;;;;;;;18.58;16.62;;;24.90;70.60;;;;;;4640829;55;21148;-37
2023/06/09 15:50:22;;;;;;;18.33;16.33;;;24.80;70.60;;;;;;4653295;55;21141;-37
2023/06/09 15:55:24;;;;;;;19.40;17.40;;;24.80;70.50;;;;;;4624165;56;21017;-37
2023/06/09 16:00:25;;;;;;;18.55;16.73;;;24.80;70.60;;;;;;4708237;56;21037;-35
2023/06/09 16:05:26;;;;;;;18.23;16.23;;;24.80;70.60;;;;;;4639496;56;21504;-37
2023/06/09 16:10:26;;;;;;;18.87;16.98;;;24.80;70.50;;;;;;4692764;55;21069;-35
2023/06/09 16:15:33;;;;;;;18.58;16.75;;;24.80;70.60;;;;;;4624476;55;21033;-36
2023/06/09 16:20:35;;;;;;;17.95;16.15;;;24.90;70.60;;;;;;4616228;55;21599;-35
2023/06/09 16:25:37;;;;;;;17.15;15.45;;;24.80;70.60;;;;;;4715174;56;21029;-37
2023/06/09 16:30:38;;;;;;;18.62;16.70;;;24.80;70.60;;;;;;4615647;60;21483;-34
2023/06/09 16:35:40;;;;;;;17.83;16.05;;;24.90;70.60;;;;;;4615996;55;21013;-38
2023/06/09 16:40:41;;;;;;;17.77;15.98;;;24.80;70.60;;;;;;4615610;55;21084;-36
2023/06/09 16:45:42;;;;;;;17.48;15.63;;;24.80;70.60;;;;;;4624077;55;21599;-38
2023/06/09 16:50:43;;;;;;;18.08;16.27;;;24.90;70.60;;;;;;4620441;55;21080;-37
2023/06/09 16:55:44;;;;;;;17.73;16.02;;;24.80;70.60;;;;;;4615749;59;21017;-35
2023/06/09 17:00:45;;;;;;;18.00;16.20;;;24.80;70.60;;;;;;4887075;55;21535;-37
2023/06/09 17:05:46;;;;;;;17.92;16.12;;;24.80;70.60;;;;;;4664204;55;21489;-36
2023/06/09 17:10:46;;;;;;;16.83;15.13;;;24.80;70.60;;;;;;4633975;55;21073;-36
2023/06/09 17:15:47;;;;;;;17.70;15.90;;;24.90;70.70;;;;;;4615728;59;21476;-34
2023/06/09 17:20:48;;;;;;;18.10;16.27;;;24.90;70.70;;;;;;4668881;55;21024;-35
2023/06/09 17:25:49;;;;;;;18.00;15.82;;;24.80;70.60;;;;;;4695535;55;21590;-33
2023/06/09 17:30:50;;;;;;;16.92;15.20;;;24.80;70.60;;;;;;4640279;55;21531;-37
2023/06/09 17:35:51;;;;;;;17.65;15.85;;;24.90;70.70;;;;;;4690554;55;21010;-34
2023/06/09 17:40:51;;;;;;;17.58;15.77;;;24.90;70.70;;;;;;4615687;55;21041;-34
2023/06/09 17:45:52;;;;;;;18.17;16.37;;;24.80;70.60;;;;;;4614380;60;21094;-35
2023/06/09 17:50:53;;;;;;;16.75;15.05;;;24.80;70.60;;;;;;4615629;60;21029;-34
2023/06/09 17:55:54;;;;;;;16.90;15.30;;;24.80;70.60;;;;;;4656480;55;21034;-37
2023/06/09 18:00:55;;;;;;;17.75;15.95;;;24.80;70.60;;;;;;4627757;55;21532;-36
2023/06/09 18:05:56;;;;;;;17.00;15.30;;;24.90;70.70;;;;;;4614950;59;21009;-34
2023/06/09 18:10:57;;;;;;;17.10;15.35;;;24.80;70.60;;;;;;4643038;55;21634;-35
2023/06/09 18:15:58;;;;;;;17.20;15.55;;;24.90;70.70;;;;;;4666895;55;21519;-37
2023/06/09 18:20:59;;;;;;;17.80;16.00;;;24.80;70.60;;;;;;4620636;56;21013;-37
2023/06/09 18:26:00;;;;;;;17.40;15.68;;;24.90;71.30;;;;;;4617514;55;21539;-37
2023/06/09 18:31:01;;;;;;;17.58;15.77;;;24.90;70.70;;;;;;4630966;55;21057;-38
2023/06/09 18:36:02;;;;;;;17.05;15.40;;;24.90;70.70;;;;;;4615539;55;21578;-34
2023/06/09 18:41:03;;;;;;;17.12;15.43;;;24.90;70.70;;;;;;4655907;56;21084;-38
2023/06/09 18:46:04;;;;;;;16.90;15.25;;;24.90;70.70;;;;;;4627703;55;21594;-37
2023/06/09 18:51:06;;;;;;;16.65;15.02;;;24.80;70.60;;;;;;4615560;60;21491;-37
2023/06/09 18:56:06;;;;;;;17.15;15.35;;;24.90;70.70;;;;;;4615598;56;21142;-34
2023/06/09 19:01:07;;;;;;;16.62;14.93;;;24.80;70.60;;;;;;4675822;55;21041;-35
2023/06/09 19:06:08;;;;;;;16.60;14.90;;;24.80;70.60;;;;;;4620405;55;21037;-35
2023/06/09 19:11:09;;;;;;;16.42;14.82;;;24.90;70.50;;;;;;4688386;55;21053;-37
2023/06/09 19:16:10;;;;;;;16.52;14.95;;;24.90;70.50;;;;;;4643572;55;21096;-37
2023/06/09 19:21:14;;;;;;;16.85;15.18;;;24.90;70.50;;;;;;4615698;59;21092;-37
2023/06/09 19:26:14;;;;;;;18.02;16.23;;;24.80;70.50;;;;;;4702918;56;21546;-38
2023/06/09 19:31:15;;;;;;;18.58;16.67;;;24.80;70.50;;;;;;4618940;55;21132;-37
2023/06/09 19:36:16;;;;;;;17.25;15.57;;;24.90;70.50;;;;;;4799613;55;21032;-36
2023/06/09 19:41:17;;;;;;;17.15;15.25;;;24.90;70.40;;;;;;4615577;60;21164;-37
2023/06/09 19:46:18;;;;;;;15.98;14.38;;;24.80;70.40;;;;;;4615579;55;21049;-39
2023/06/09 19:51:19;;;;;;;16.05;14.52;;;24.80;70.40;;;;;;4742196;55;21061;-35
2023/06/09 19:56:20;;;;;;;17.60;15.85;;;24.90;70.40;;;;;;4637761;56;21025;-36
2023/06/09 20:01:21;;;;;;;16.87;15.27;;;24.90;70.40;;;;;;4720232;55;21650;-35
2023/06/09 20:06:22;;;;;;;17.45;15.77;;;24.90;70.30;;;;;;4625461;55;21076;-36
2023/06/09 20:11:27;;;;;;;17.33;15.48;;;24.90;70.30;;;;;;4743325;55;21029;-36
2023/06/09 20:16:31;;;;;;;16.83;15.13;;;24.80;70.20;;;;;;4692244;56;21069;-37
2023/06/09 20:21:32;;;;;;;16.42;14.75;;;24.90;70.30;;;;;;4641894;55;21523;-36
2023/06/09 20:26:33;;;;;;;17.23;15.60;;;24.80;70.20;;;;;;4656328;55;21547;-33
2023/06/09 20:31:34;;;;;;;16.20;14.70;;;24.80;70.20;;;;;;4646454;56;21049;-35
2023/06/09 20:36:38;;;;;;;16.45;14.82;;;24.90;70.20;;;;;;4649380;55;21565;-38
2023/06/09 20:41:42;;;;;;;15.93;14.32;;;24.90;70.20;;;;;;4672559;55;21572;-38
2023/06/09 20:46:45;;;;;;;15.88;14.38;;;24.80;70.20;;;;;;4766711;55;21061;-37
2023/06/09 20:51:46;;;;;;;16.35;14.75;;;24.80;70.10;;;;;;4615374;59;21530;-37
2023/06/09 20:56:47;;;;;;;17.17;15.38;;;24.90;70.20;;;;;;4615088;59;21123;-33
2023/06/09 21:01:47;;;;;;;15.73;14.23;;;24.90;70.20;;;;;;4651955;55;21013;-36
2023/06/09 21:06:49;;;;;;;15.38;13.80;;;24.80;70.10;;;;;;4715340;55;21045;-35
2023/06/09 21:11:50;;;;;;;15.48;13.98;;;24.90;70.20;;;;;;4615966;59;21507;-36
2023/06/09 21:16:51;;;;;;;16.00;14.40;;;24.90;70.10;;;;;;4628333;56;21085;-36
2023/06/09 21:21:52;;;;;;;15.80;14.27;;;24.90;70.10;;;;;;4716991;55;21472;-35
2023/06/09 21:26:52;;;;;;;15.90;14.35;;;24.90;70.10;;;;;;4649992;55;21081;-36
2023/06/09 21:31:53;;;;;;;16.33;14.63;;;24.90;70.70;;;;;;4645416;55;21483;-37
2023/06/09 21:36:55;;;;;;;16.20;14.60;;;24.80;70.10;;;;;;4615562;59;21109;-36
2023/06/09 21:41:56;;;;;;;15.68;14.10;;;24.90;70.10;;;;;;4628021;55;21547;-36
2023/06/09 21:46:57;;;;;;;15.05;13.55;;;24.80;70.10;;;;;;4761717;55;21574;-38
2023/06/09 21:51:57;;;;;;;14.40;13.00;;;24.80;70.00;;;;;;4615411;59;21028;-35
2023/06/09 21:56:58;;;;;;;15.32;13.80;;;24.80;70.00;;;;;;4632267;55;21017;-35
2023/06/09 22:01:59;;;;;;;14.00;12.52;;;24.80;70.00;;;;;;4706409;55;21084;-37
2023/06/09 22:07:00;;;;;;;15.60;14.00;;;24.80;70.00;;;;;;4692137;55;21567;-35
2023/06/09 22:12:01;;;;;;;14.48;12.98;;;24.90;70.80;;;;;;4616018;59;21140;-38
2023/06/09 22:17:02;;;;;;;14.00;12.65;;;24.80;70.00;;;;;;4615663;60;21484;-33
2023/06/09 22:22:05;;;;;;;14.93;13.43;;;24.80;70.00;;;;;;4615375;56;21563;-37
2023/06/09 22:27:07;;;;;;;14.35;12.85;;;24.80;70.00;;;;;;4631537;56;21152;-37
2023/06/09 22:32:08;;;;;;;15.27;13.27;;;24.80;70.00;;;;;;4615662;59;21013;-37
2023/06/09 22:37:10;;;;;;;14.77;13.27;;;24.80;70.00;;;;;;4615466;60;21579;-37
2023/06/09 22:42:11;;;;;;;14.15;12.85;;;24.80;70.00;;;;;;4615565;59;21511;-36
2023/06/09 22:47:13;;;;;;;14.07;12.68;;;24.80;70.00;;;;;;4646725;55;21128;-40
2023/06/09 22:52:17;;;;;;;12.98;11.68;;;24.80;70.00;;;;;;4638079;56;21041;-37
2023/06/09 22:57:18;;;;;;;13.07;11.75;;;24.80;70.00;;;;;;4626511;55;21547;-35
2023/06/09 23:02:19;;;;;;;13.52;12.23;;;24.80;70.00;;;;;;4695210;55;21029;-37
2023/06/09 23:07:21;;;;;;;13.85;12.45;;;24.80;69.90;;;;;;4614770;60;21499;-34
2023/06/09 23:12:22;;;;;;;13.93;12.60;;;24.80;69.90;;;;;;4624068;55;21531;-36
2023/06/09 23:17:23;;;;;;;14.57;13.07;;;24.80;70.00;;;;;;4654780;55;21157;-33
2023/06/09 23:22:24;;;;;;;14.18;12.80;;;24.80;69.90;;;;;;4680230;56;21073;-37
2023/06/09 23:27:25;;;;;;;12.90;11.60;;;24.80;69.80;;;;;;4630818;55;21531;-36
2023/06/09 23:32:25;;;;;;;13.70;12.40;;;24.80;70.50;;;;;;4621346;55;21077;-34
2023/06/09 23:37:28;;;;;;;13.40;12.10;;;24.80;69.90;;;;;;4615604;55;21045;-36
2023/06/09 23:42:29;;;;;;;14.18;12.77;;;24.80;69.80;;;;;;4615231;59;21551;-34
2023/06/09 23:47:30;;;;;;;13.88;12.57;;;24.80;69.80;;;;;;4800535;55;21017;-36
2023/06/09 23:52:32;;;;;;;13.52;12.13;;;24.80;69.80;;;;;;4674161;56;21042;-35
2023/06/09 23:57:33;;;;;;;14.38;12.98;;;24.80;69.70;;;;;;4633374;55;21602;-36
